Time;durP1;ratioP1;P1;durP2;ratioP2;P2;SDS_P1;SDS_P2;PMS_P1;PMS_P2;Temp;Humidity;BMP_temperature;BMP_pressure;BME280_temperature;BME280_humidity;BME280_pressure;Samples;Min_cycle;Max_cycle;Signal;HPM_P1;HPM_P2
2022/07/30 00:00:45;;;;;;;14.75;6.15;;;;;;;;;;5035349;28;20788;-63
2022/07/30 00:03:10;;;;;;;13.15;6.32;;;;;;;;;;5052663;28;20222;-64
2022/07/30 00:05:36;;;;;;;10.70;5.43;;;;;;;;;;5052579;28;20215;-63
2022/07/30 00:08:01;;;;;;;12.20;5.80;;;;;;;;;;5052854;28;20223;-63
2022/07/30 00:10:27;;;;;;;12.88;5.40;;;;;;;;;;5053153;28;20650;-63
2022/07/30 00:12:52;;;;;;;14.52;5.90;;;;;;;;;;5052880;28;20273;-63
2022/07/30 00:15:17;;;;;;;11.32;6.05;;;;;;;;;;5053008;28;20265;-61
2022/07/30 00:17:43;;;;;;;18.00;6.55;;;;;;;;;;5053549;28;20632;-60
2022/07/30 00:20:08;;;;;;;14.85;6.28;;;;;;;;;;5051481;28;20666;-63
2022/07/30 00:22:33;;;;;;;15.27;7.00;;;;;;;;;;5052891;28;20213;-63
2022/07/30 00:24:59;;;;;;;13.77;6.95;;;;;;;;;;5052840;28;20215;-63
2022/07/30 00:27:24;;;;;;;16.23;7.20;;;;;;;;;;5052162;28;20712;-63
2022/07/30 00:29:49;;;;;;;12.60;6.75;;;;;;;;;;5052777;28;20247;-63
2022/07/30 00:32:15;;;;;;;17.73;7.10;;;;;;;;;;5052721;28;20207;-63
2022/07/30 00:34:40;;;;;;;13.90;6.88;;;;;;;;;;5052046;28;20616;-63
2022/07/30 00:37:05;;;;;;;14.10;6.45;;;;;;;;;;5052444;28;20274;-63
2022/07/30 00:39:31;;;;;;;13.55;6.22;;;;;;;;;;5052837;28;20227;-63
2022/07/30 00:41:58;;;;;;;14.88;7.03;;;;;;;;;;5052168;28;20210;-63
2022/07/30 00:44:23;;;;;;;14.27;6.43;;;;;;;;;;5052266;28;20297;-62
2022/07/30 00:46:48;;;;;;;11.68;6.53;;;;;;;;;;5052418;28;20240;-63
2022/07/30 00:49:14;;;;;;;13.35;7.15;;;;;;;;;;5050942;28;20211;-63
2022/07/30 00:51:39;;;;;;;13.68;7.68;;;;;;;;;;5052269;28;20206;-63
2022/07/30 00:54:04;;;;;;;14.60;7.45;;;;;;;;;;5051957;28;20211;-63
2022/07/30 00:56:30;;;;;;;11.73;6.53;;;;;;;;;;5051699;28;20238;-63
2022/07/30 00:58:55;;;;;;;12.05;7.30;;;;;;;;;;5052786;28;20294;-63
2022/07/30 01:01:20;;;;;;;15.18;7.85;;;;;;;;;;5051112;28;20220;-62
2022/07/30 01:03:45;;;;;;;11.73;7.10;;;;;;;;;;5052261;28;20713;-63
2022/07/30 01:06:11;;;;;;;14.32;8.25;;;;;;;;;;5051558;28;20297;-62
2022/07/30 01:08:36;;;;;;;12.27;7.85;;;;;;;;;;5028728;28;20447;-62
2022/07/30 01:11:01;;;;;;;13.90;8.60;;;;;;;;;;5039926;28;20245;-63
2022/07/30 01:13:27;;;;;;;16.73;8.25;;;;;;;;;;5033840;28;20566;-63
2022/07/30 01:15:52;;;;;;;14.60;8.85;;;;;;;;;;5022557;28;20230;-62
2022/07/30 01:18:17;;;;;;;13.55;8.50;;;;;;;;;;5030679;28;20211;-63
2022/07/30 01:20:47;;;;;;;16.42;9.85;;;;;;;;;;5017407;28;20269;-62
2022/07/30 01:23:14;;;;;;;14.57;8.90;;;;;;;;;;5032134;28;20211;-63
2022/07/30 01:25:42;;;;;;;12.32;9.35;;;;;;;;;;5016909;28;20212;-63
2022/07/30 01:28:09;;;;;;;16.80;9.98;;;;;;;;;;5021919;28;20269;-62
2022/07/30 01:30:35;;;;;;;12.27;9.07;;;;;;;;;;5022013;28;21136;-62
2022/07/30 01:33:00;;;;;;;12.52;8.95;;;;;;;;;;5022927;28;20222;-63
2022/07/30 01:35:26;;;;;;;13.85;9.68;;;;;;;;;;5042068;28;20214;-62
2022/07/30 01:37:52;;;;;;;11.95;9.00;;;;;;;;;;5032298;28;20538;-62
2022/07/30 01:40:18;;;;;;;15.48;9.38;;;;;;;;;;5023903;28;20246;-62
2022/07/30 01:42:43;;;;;;;17.50;9.90;;;;;;;;;;5035013;28;20212;-63
2022/07/30 01:45:09;;;;;;;13.05;9.75;;;;;;;;;;5018655;28;20678;-63
2022/07/30 01:47:34;;;;;;;13.60;9.48;;;;;;;;;;5018336;28;20711;-63
2022/07/30 01:50:00;;;;;;;15.85;9.32;;;;;;;;;;5027518;28;20210;-63
2022/07/30 01:52:25;;;;;;;14.40;9.38;;;;;;;;;;5027045;28;20744;-62
2022/07/30 01:54:51;;;;;;;12.77;9.68;;;;;;;;;;5028115;28;20214;-62
2022/07/30 01:57:17;;;;;;;18.05;11.45;;;;;;;;;;5045596;28;20880;-62
2022/07/30 01:59:42;;;;;;;14.18;9.40;;;;;;;;;;5027556;28;20219;-62
2022/07/30 02:02:08;;;;;;;16.95;9.75;;;;;;;;;;5027866;28;20207;-62
2022/07/30 02:04:33;;;;;;;11.55;8.45;;;;;;;;;;5037819;28;20328;-62
2022/07/30 02:07:00;;;;;;;15.40;8.63;;;;;;;;;;5037035;28;20229;-62
2022/07/30 02:09:27;;;;;;;12.90;9.48;;;;;;;;;;5019256;28;20403;-63
2022/07/30 02:14:38;;;;;;;11.32;8.80;;;;;;;;;;5021387;28;20211;-62
2022/07/30 02:17:03;;;;;;;12.20;8.75;;;;;;;;;;5011214;28;20251;-62
2022/07/30 02:19:31;;;;;;;12.50;8.75;;;;;;;;;;5024511;28;20232;-62
2022/07/30 02:21:58;;;;;;;12.95;8.30;;;;;;;;;;5024408;28;20558;-62
2022/07/30 02:24:25;;;;;;;12.20;9.10;;;;;;;;;;5023611;28;20222;-63
2022/07/30 02:26:50;;;;;;;11.45;8.77;;;;;;;;;;5017203;28;20219;-62
2022/07/30 02:29:17;;;;;;;13.70;9.48;;;;;;;;;;5015636;28;20230;-62
2022/07/30 02:31:42;;;;;;;13.07;9.05;;;;;;;;;;5016542;28;20307;-62
2022/07/30 02:34:07;;;;;;;23.70;9.85;;;;;;;;;;5022675;28;20734;-63
2022/07/30 02:36:32;;;;;;;13.98;9.82;;;;;;;;;;5023818;28;20219;-63
2022/07/30 02:38:58;;;;;;;14.05;9.30;;;;;;;;;;5005597;28;20755;-63
2022/07/30 02:41:24;;;;;;;12.38;9.40;;;;;;;;;;5022465;28;20230;-63
2022/07/30 02:43:49;;;;;;;14.45;9.55;;;;;;;;;;5025185;28;20219;-63
2022/07/30 02:46:15;;;;;;;10.98;8.32;;;;;;;;;;5024814;28;20226;-63
2022/07/30 02:48:40;;;;;;;13.43;9.27;;;;;;;;;;5000683;28;20231;-63
2022/07/30 02:51:06;;;;;;;12.23;8.75;;;;;;;;;;5014565;28;20533;-62
2022/07/30 02:53:32;;;;;;;12.65;9.93;;;;;;;;;;5015176;28;20219;-62
2022/07/30 02:55:58;;;;;;;13.05;10.07;;;;;;;;;;5020131;28;20281;-63
2022/07/30 02:58:23;;;;;;;14.00;10.30;;;;;;;;;;5023494;28;20671;-63
2022/07/30 03:00:49;;;;;;;15.90;10.38;;;;;;;;;;5023300;28;20215;-63
2022/07/30 03:03:14;;;;;;;14.52;9.45;;;;;;;;;;5024130;28;20242;-63
2022/07/30 03:05:39;;;;;;;16.58;10.30;;;;;;;;;;5024252;28;20223;-63
2022/07/30 03:08:07;;;;;;;14.07;10.10;;;;;;;;;;5021980;28;20230;-63
2022/07/30 03:10:32;;;;;;;15.15;10.75;;;;;;;;;;5023303;28;20382;-62
2022/07/30 03:12:58;;;;;;;11.73;9.35;;;;;;;;;;5017085;28;20304;-62
2022/07/30 03:15:23;;;;;;;14.30;9.68;;;;;;;;;;5006710;28;20370;-62
2022/07/30 03:17:49;;;;;;;16.83;9.75;;;;;;;;;;5009201;28;20211;-62
2022/07/30 03:20:16;;;;;;;14.18;10.75;;;;;;;;;;5022494;28;20242;-62
2022/07/30 03:22:42;;;;;;;12.52;10.70;;;;;;;;;;5023587;28;20216;-62
2022/07/30 03:25:08;;;;;;;12.73;10.63;;;;;;;;;;5023885;28;20215;-63
2022/07/30 03:27:34;;;;;;;10.48;9.38;;;;;;;;;;5023244;28;20236;-63
2022/07/30 03:30:01;;;;;;;13.93;11.50;;;;;;;;;;5023725;28;20212;-62
2022/07/30 03:32:26;;;;;;;13.93;11.15;;;;;;;;;;5023940;28;20289;-62
2022/07/30 03:34:52;;;;;;;13.05;10.90;;;;;;;;;;5014807;28;20573;-62
2022/07/30 03:37:18;;;;;;;14.10;11.75;;;;;;;;;;5006445;28;20236;-62
2022/07/30 03:39:43;;;;;;;16.58;11.40;;;;;;;;;;4996666;28;20315;-62
2022/07/30 03:42:08;;;;;;;16.30;11.13;;;;;;;;;;5002688;28;20808;-62
2022/07/30 03:44:34;;;;;;;30.42;12.98;;;;;;;;;;5004293;28;20262;-63
2022/07/30 03:46:59;;;;;;;116.88;16.02;;;;;;;;;;5004625;28;20212;-63
2022/07/30 03:49:25;;;;;;;14.63;11.07;;;;;;;;;;5021475;28;20315;-63
2022/07/30 03:51:50;;;;;;;13.65;11.02;;;;;;;;;;5021177;28;20203;-64
2022/07/30 03:54:15;;;;;;;14.40;10.82;;;;;;;;;;5023576;28;20263;-63
2022/07/30 03:56:41;;;;;;;15.00;11.10;;;;;;;;;;5019787;28;20216;-63
2022/07/30 03:59:06;;;;;;;16.17;10.48;;;;;;;;;;5013369;28;20710;-63
2022/07/30 04:01:32;;;;;;;14.80;11.10;;;;;;;;;;5015792;28;20220;-63
2022/07/30 04:04:04;;;;;;;15.60;10.95;;;;;;;;;;5019015;28;20235;-63
2022/07/30 04:06:29;;;;;;;13.07;10.13;;;;;;;;;;5022268;28;20280;-63
2022/07/30 04:08:55;;;;;;;18.30;10.68;;;;;;;;;;5023756;28;20228;-62
2022/07/30 04:11:20;;;;;;;23.67;11.05;;;;;;;;;;5022396;28;20224;-62
2022/07/30 04:13:45;;;;;;;14.27;10.75;;;;;;;;;;5023581;28;20569;-62
2022/07/30 04:16:13;;;;;;;19.45;11.02;;;;;;;;;;5007649;28;20232;-63
2022/07/30 04:18:41;;;;;;;47.58;12.25;;;;;;;;;;5001184;28;20648;-62
2022/07/30 04:21:08;;;;;;;28.77;10.20;;;;;;;;;;5013493;28;20216;-63
2022/07/30 04:23:33;;;;;;;164.80;20.85;;;;;;;;;;5014262;28;20548;-63
2022/07/30 04:25:59;;;;;;;23.77;10.70;;;;;;;;;;5015871;28;20219;-63
2022/07/30 04:28:24;;;;;;;23.38;10.63;;;;;;;;;;5021805;28;20227;-62
2022/07/30 04:30:50;;;;;;;26.20;11.23;;;;;;;;;;5021951;28;20219;-62
2022/07/30 04:33:15;;;;;;;15.95;9.13;;;;;;;;;;5021156;28;20216;-60
2022/07/30 04:35:40;;;;;;;28.52;9.57;;;;;;;;;;5021506;28;20212;-60
2022/07/30 04:38:06;;;;;;;12.70;8.27;;;;;;;;;;5008462;28;21028;-61
2022/07/30 04:40:32;;;;;;;16.40;9.07;;;;;;;;;;5022103;28;20204;-63
2022/07/30 04:42:57;;;;;;;12.52;8.10;;;;;;;;;;5015841;28;20727;-64
2022/07/30 04:45:22;;;;;;;13.80;8.20;;;;;;;;;;5014752;28;20310;-64
2022/07/30 04:47:48;;;;;;;13.23;7.65;;;;;;;;;;5003019;28;20590;-63
2022/07/30 04:50:13;;;;;;;12.10;8.00;;;;;;;;;;5002445;28;20311;-63
2022/07/30 04:52:39;;;;;;;13.15;7.45;;;;;;;;;;5021068;28;20220;-63
2022/07/30 04:55:05;;;;;;;12.85;7.85;;;;;;;;;;5020189;28;20562;-64
2022/07/30 04:57:31;;;;;;;12.90;7.43;;;;;;;;;;5022893;28;20227;-64
2022/07/30 04:59:56;;;;;;;11.82;7.28;;;;;;;;;;5022566;28;20725;-65
2022/07/30 05:02:24;;;;;;;22.33;8.13;;;;;;;;;;5021593;28;20212;-67
2022/07/30 05:04:49;;;;;;;13.10;7.60;;;;;;;;;;5015434;28;20445;-65
2022/07/30 05:07:14;;;;;;;11.27;7.22;;;;;;;;;;4996556;28;20585;-65
2022/07/30 05:09:40;;;;;;;10.55;6.85;;;;;;;;;;4991944;28;20228;-65
2022/07/30 05:12:05;;;;;;;11.13;6.70;;;;;;;;;;4996432;28;20219;-65
2022/07/30 05:14:30;;;;;;;9.60;6.53;;;;;;;;;;5000054;28;20224;-63
2022/07/30 05:16:56;;;;;;;13.45;7.25;;;;;;;;;;5003724;28;20259;-63
2022/07/30 05:19:21;;;;;;;13.15;6.90;;;;;;;;;;5001873;28;20226;-63
2022/07/30 05:21:46;;;;;;;12.10;6.35;;;;;;;;;;5003666;28;20215;-64
2022/07/30 05:24:12;;;;;;;14.32;6.95;;;;;;;;;;5004240;28;20216;-66
2022/07/30 05:26:37;;;;;;;13.40;6.95;;;;;;;;;;5000512;28;20212;-63
2022/07/30 05:29:03;;;;;;;16.35;6.60;;;;;;;;;;4996343;28;20315;-62
2022/07/30 05:31:28;;;;;;;19.55;6.68;;;;;;;;;;4995736;28;20319;-62
2022/07/30 05:33:53;;;;;;;16.30;6.75;;;;;;;;;;4997046;28;20212;-66
2022/07/30 05:36:19;;;;;;;10.52;6.53;;;;;;;;;;5001062;28;20215;-64
2022/07/30 05:38:45;;;;;;;11.10;6.53;;;;;;;;;;5002392;28;20232;-64
2022/07/30 05:41:11;;;;;;;12.93;6.50;;;;;;;;;;5001775;28;20211;-64
2022/07/30 05:43:36;;;;;;;11.07;6.90;;;;;;;;;;5002325;28;20216;-63
2022/07/30 05:46:01;;;;;;;12.43;6.68;;;;;;;;;;5003480;28;20208;-65
2022/07/30 05:48:27;;;;;;;11.63;6.32;;;;;;;;;;5003818;28;20228;-65
2022/07/30 05:50:52;;;;;;;13.32;6.55;;;;;;;;;;4995168;28;20849;-65
2022/07/30 05:53:18;;;;;;;11.32;5.55;;;;;;;;;;5010069;28;20286;-64
2022/07/30 05:55:43;;;;;;;9.20;6.45;;;;;;;;;;5036719;28;20211;-63
2022/07/30 05:58:08;;;;;;;10.02;7.07;;;;;;;;;;5037953;28;20227;-62
2022/07/30 06:00:34;;;;;;;14.68;7.20;;;;;;;;;;5039703;28;20241;-63
2022/07/30 06:02:59;;;;;;;10.23;6.20;;;;;;;;;;5041183;28;20222;-63
2022/07/30 06:05:25;;;;;;;11.93;5.85;;;;;;;;;;5038713;28;20226;-62
2022/07/30 06:07:50;;;;;;;11.50;6.43;;;;;;;;;;5038473;28;20219;-63
2022/07/30 06:10:15;;;;;;;33.53;6.90;;;;;;;;;;5033117;28;20294;-62
2022/07/30 06:12:41;;;;;;;9.20;5.95;;;;;;;;;;5030660;28;20216;-62
2022/07/30 06:15:07;;;;;;;13.02;6.05;;;;;;;;;;5031910;28;20282;-63
2022/07/30 06:17:32;;;;;;;13.02;6.43;;;;;;;;;;5037074;28;20223;-64
2022/07/30 06:19:58;;;;;;;9.00;5.47;;;;;;;;;;5011452;28;20303;-64
2022/07/30 06:22:23;;;;;;;11.98;5.72;;;;;;;;;;5011880;28;20295;-64
2022/07/30 06:24:49;;;;;;;12.38;5.30;;;;;;;;;;5014983;28;20235;-64
2022/07/30 06:27:14;;;;;;;12.38;5.07;;;;;;;;;;5015347;28;20232;-63
2022/07/30 06:29:39;;;;;;;9.80;5.45;;;;;;;;;;5015508;28;20223;-64
2022/07/30 06:32:05;;;;;;;11.40;5.43;;;;;;;;;;5014606;28;20205;-64
2022/07/30 06:34:30;;;;;;;7.55;5.10;;;;;;;;;;5015689;28;20205;-64
2022/07/30 06:36:55;;;;;;;11.80;5.63;;;;;;;;;;5020376;28;20298;-64
2022/07/30 06:39:21;;;;;;;10.20;5.50;;;;;;;;;;5053360;28;20238;-63
2022/07/30 06:41:46;;;;;;;13.48;5.97;;;;;;;;;;5054866;28;20673;-64
2022/07/30 06:44:11;;;;;;;13.70;5.65;;;;;;;;;;5054442;28;20207;-64
2022/07/30 06:46:36;;;;;;;12.70;4.90;;;;;;;;;;5052620;28;20572;-65
2022/07/30 06:49:02;;;;;;;8.70;4.90;;;;;;;;;;5016563;28;20260;-64
2022/07/30 06:51:27;;;;;;;12.55;5.00;;;;;;;;;;5014933;28;20343;-64
2022/07/30 06:53:52;;;;;;;17.48;5.03;;;;;;;;;;5027042;28;20223;-63
2022/07/30 06:56:18;;;;;;;61.35;7.53;;;;;;;;;;5034589;28;20290;-62
2022/07/30 06:58:43;;;;;;;10.60;4.00;;;;;;;;;;5034542;28;20226;-64
2022/07/30 07:01:08;;;;;;;8.30;3.67;;;;;;;;;;5033007;28;20540;-65
2022/07/30 07:03:34;;;;;;;10.60;3.72;;;;;;;;;;5034775;28;20228;-65
2022/07/30 07:05:59;;;;;;;9.30;3.60;;;;;;;;;;5034302;28;20219;-65
2022/07/30 07:08:25;;;;;;;7.25;2.80;;;;;;;;;;5033635;28;20224;-66
2022/07/30 07:10:50;;;;;;;7.28;3.10;;;;;;;;;;5034117;28;20243;-64
2022/07/30 07:13:16;;;;;;;9.27;3.08;;;;;;;;;;5032629;28;20212;-63
2022/07/30 07:15:41;;;;;;;9.75;2.92;;;;;;;;;;5038307;28;20642;-63
2022/07/30 07:18:06;;;;;;;8.55;2.90;;;;;;;;;;5053062;28;20215;-64
2022/07/30 07:20:32;;;;;;;7.05;2.50;;;;;;;;;;5053212;28;20300;-64
2022/07/30 07:22:57;;;;;;;8.77;2.45;;;;;;;;;;5052582;28;20254;-64
2022/07/30 07:25:23;;;;;;;6.47;2.53;;;;;;;;;;5053007;28;20222;-64
2022/07/30 07:27:48;;;;;;;7.60;2.80;;;;;;;;;;5053139;28;20698;-64
2022/07/30 07:30:14;;;;;;;7.82;2.33;;;;;;;;;;5051659;28;20214;-64
2022/07/30 07:32:39;;;;;;;9.63;2.90;;;;;;;;;;5053270;28;20223;-64
2022/07/30 07:35:04;;;;;;;5.70;2.13;;;;;;;;;;5051432;28;20581;-65
2022/07/30 07:37:30;;;;;;;11.30;2.90;;;;;;;;;;5052195;28;20613;-65
2022/07/30 07:39:55;;;;;;;5.90;2.00;;;;;;;;;;5052885;28;20215;-64
2022/07/30 07:42:21;;;;;;;7.50;2.25;;;;;;;;;;5051354;28;20219;-64
2022/07/30 07:44:46;;;;;;;8.10;2.45;;;;;;;;;;5052885;28;20207;-64
2022/07/30 07:47:11;;;;;;;9.52;2.45;;;;;;;;;;5052430;28;20763;-65
2022/07/30 07:49:37;;;;;;;5.93;2.33;;;;;;;;;;5052194;28;20211;-64
2022/07/30 07:52:02;;;;;;;7.72;2.08;;;;;;;;;;5052156;28;20211;-65
2022/07/30 07:54:27;;;;;;;5.57;2.60;;;;;;;;;;5052546;28;20211;-64
2022/07/30 07:56:55;;;;;;;7.25;2.60;;;;;;;;;;5051602;28;20230;-65
2022/07/30 07:59:20;;;;;;;7.25;2.53;;;;;;;;;;5051906;28;20211;-65
2022/07/30 08:01:45;;;;;;;8.40;2.40;;;;;;;;;;5052393;28;20230;-62
2022/07/30 08:04:10;;;;;;;5.93;2.20;;;;;;;;;;5041509;28;20227;-62
2022/07/30 08:06:36;;;;;;;7.55;2.60;;;;;;;;;;5032525;28;20219;-64
2022/07/30 08:09:01;;;;;;;9.55;2.40;;;;;;;;;;5032206;28;20694;-64
2022/07/30 08:11:27;;;;;;;5.65;2.03;;;;;;;;;;5031829;28;20220;-64
2022/07/30 08:13:52;;;;;;;7.70;1.90;;;;;;;;;;5032293;28;20211;-64
2022/07/30 08:16:17;;;;;;;7.72;2.05;;;;;;;;;;5042428;28;20561;-65
2022/07/30 08:18:43;;;;;;;11.02;2.60;;;;;;;;;;5051600;28;20604;-64
2022/07/30 08:21:08;;;;;;;6.90;2.47;;;;;;;;;;5051463;28;20219;-63
2022/07/30 08:23:33;;;;;;;6.38;1.98;;;;;;;;;;5052126;28;20215;-66
2022/07/30 08:25:59;;;;;;;8.98;2.40;;;;;;;;;;5051211;28;20247;-64
2022/07/30 08:28:24;;;;;;;27.52;3.10;;;;;;;;;;5051377;28;20229;-63
2022/07/30 08:30:49;;;;;;;9.77;2.53;;;;;;;;;;5051784;28;20564;-62
2022/07/30 08:33:15;;;;;;;9.18;2.05;;;;;;;;;;5050802;28;20302;-61
2022/07/30 08:35:40;;;;;;;6.15;2.10;;;;;;;;;;5051734;28;20207;-62
2022/07/30 08:38:05;;;;;;;14.18;3.22;;;;;;;;;;5051328;28;20262;-62
2022/07/30 08:40:32;;;;;;;17.00;2.97;;;;;;;;;;5050781;28;20210;-62
2022/07/30 08:42:57;;;;;;;24.40;3.17;;;;;;;;;;5051497;28;20322;-61
2022/07/30 08:45:23;;;;;;;8.82;1.85;;;;;;;;;;5051054;28;20698;-62
2022/07/30 08:47:48;;;;;;;12.60;2.58;;;;;;;;;;5032964;28;20231;-64
2022/07/30 08:50:14;;;;;;;13.40;2.72;;;;;;;;;;5033041;28;20218;-63
2022/07/30 08:52:39;;;;;;;28.40;4.25;;;;;;;;;;5032995;28;20284;-63
2022/07/30 08:55:05;;;;;;;4.43;1.58;;;;;;;;;;5033314;28;20302;-62
2022/07/30 08:57:30;;;;;;;6.88;1.77;;;;;;;;;;5051409;28;20254;-62
2022/07/30 08:59:56;;;;;;;6.70;1.95;;;;;;;;;;5050638;28;20263;-62
2022/07/30 09:02:22;;;;;;;7.15;1.52;;;;;;;;;;5050600;28;20631;-61
2022/07/30 09:04:47;;;;;;;6.10;1.52;;;;;;;;;;5050470;28;20233;-61
2022/07/30 09:07:12;;;;;;;6.22;1.50;;;;;;;;;;5049963;28;20227;-62
2022/07/30 09:09:38;;;;;;;5.60;1.50;;;;;;;;;;5059088;28;20217;-62
2022/07/30 09:12:04;;;;;;;6.95;1.63;;;;;;;;;;5058743;28;20218;-62
2022/07/30 09:14:30;;;;;;;10.65;2.42;;;;;;;;;;5032440;28;20293;-62
2022/07/30 09:16:56;;;;;;;5.25;1.58;;;;;;;;;;5051942;28;20693;-61
2022/07/30 09:19:21;;;;;;;7.30;1.63;;;;;;;;;;5050350;28;20314;-62
2022/07/30 09:21:55;;;;;;;6.40;2.17;;;;;;;;;;5050490;28;20294;-62
2022/07/30 09:24:20;;;;;;;6.20;1.90;;;;;;;;;;5033082;28;20218;-61
2022/07/30 09:26:51;;;;;;;9.10;1.60;;;;;;;;;;5051683;28;20627;-64
2022/07/30 09:29:18;;;;;;;6.50;1.63;;;;;;;;;;5050772;28;20254;-65
2022/07/30 09:31:56;;;;;;;6.20;1.40;;;;;;;;;;5051435;28;20295;-64
2022/07/30 09:34:23;;;;;;;4.68;1.30;;;;;;;;;;5051340;28;20218;-64
2022/07/30 09:36:49;;;;;;;7.57;1.58;;;;;;;;;;5032547;28;20211;-64
2022/07/30 09:39:14;;;;;;;7.18;1.45;;;;;;;;;;5051797;28;20731;-64
2022/07/30 09:41:40;;;;;;;7.57;1.70;;;;;;;;;;5052170;28;20216;-64
2022/07/30 09:44:05;;;;;;;13.90;2.05;;;;;;;;;;5050907;28;20207;-64
2022/07/30 09:46:50;;;;;;;12.02;1.80;;;;;;;;;;5051938;28;20211;-64
2022/07/30 09:49:16;;;;;;;12.27;2.15;;;;;;;;;;5050432;28;20225;-65
2022/07/30 09:51:41;;;;;;;67.32;4.70;;;;;;;;;;5051980;28;20219;-64
2022/07/30 09:54:07;;;;;;;23.30;2.50;;;;;;;;;;5051737;28;20215;-64
2022/07/30 09:56:32;;;;;;;8.43;1.75;;;;;;;;;;5051337;28;20321;-65
2022/07/30 09:58:57;;;;;;;7.40;1.67;;;;;;;;;;5055103;28;20222;-65
2022/07/30 10:01:23;;;;;;;6.97;1.60;;;;;;;;;;5054935;28;20207;-64
2022/07/30 10:03:48;;;;;;;9.02;2.08;;;;;;;;;;5054778;28;20230;-64
2022/07/30 10:06:13;;;;;;;39.80;3.25;;;;;;;;;;5055288;28;20296;-65
2022/07/30 10:08:39;;;;;;;6.03;1.40;;;;;;;;;;5055619;28;20227;-64
2022/07/30 10:11:04;;;;;;;10.25;2.03;;;;;;;;;;5054545;28;20223;-64
2022/07/30 10:13:30;;;;;;;7.00;1.50;;;;;;;;;;5037792;28;20226;-64
2022/07/30 10:15:55;;;;;;;4.93;1.50;;;;;;;;;;5055752;28;20215;-64
2022/07/30 10:18:20;;;;;;;11.82;1.92;;;;;;;;;;5053926;28;20577;-65
2022/07/30 10:20:46;;;;;;;4.88;1.50;;;;;;;;;;5055452;28;20560;-65
2022/07/30 10:23:11;;;;;;;5.47;1.45;;;;;;;;;;5054787;28;20211;-64
2022/07/30 10:25:36;;;;;;;3.90;1.20;;;;;;;;;;5036677;28;20229;-64
2022/07/30 10:28:02;;;;;;;131.88;9.35;;;;;;;;;;5054717;28;20231;-64
2022/07/30 10:30:27;;;;;;;13.05;1.92;;;;;;;;;;5037422;28;20211;-64
2022/07/30 10:32:52;;;;;;;7.90;1.80;;;;;;;;;;5054131;28;20580;-65
2022/07/30 10:35:18;;;;;;;8.00;1.80;;;;;;;;;;5054152;28;20207;-65
2022/07/30 10:37:44;;;;;;;8.90;1.70;;;;;;;;;;5037284;28;20219;-64
2022/07/30 10:40:19;;;;;;;10.27;1.80;;;;;;;;;;5054317;28;20207;-64
2022/07/30 10:43:02;;;;;;;5.00;1.50;;;;;;;;;;5037385;28;20225;-64
2022/07/30 10:45:31;;;;;;;9.32;1.67;;;;;;;;;;5054204;28;20273;-64
2022/07/30 10:47:56;;;;;;;9.68;2.00;;;;;;;;;;5053551;28;20767;-65
2022/07/30 10:50:25;;;;;;;11.85;1.63;;;;;;;;;;5054008;28;20211;-65
2022/07/30 10:52:55;;;;;;;8.20;1.30;;;;;;;;;;5052688;28;20214;-65
2022/07/30 10:55:21;;;;;;;4.07;1.40;;;;;;;;;;5054301;28;20301;-64
2022/07/30 10:57:59;;;;;;;12.48;1.52;;;;;;;;;;5054890;28;20218;-64
2022/07/30 11:00:25;;;;;;;6.43;1.40;;;;;;;;;;5053569;28;20272;-64
2022/07/30 11:03:09;;;;;;;5.10;1.20;;;;;;;;;;5054519;28;21732;-64
2022/07/30 11:05:34;;;;;;;44.13;3.33;;;;;;;;;;5037785;28;20338;-65
2022/07/30 11:08:18;;;;;;;7.28;1.38;;;;;;;;;;5033940;28;20700;-64
2022/07/30 11:10:44;;;;;;;5.53;1.23;;;;;;;;;;5033454;28;20223;-65
2022/07/30 11:13:09;;;;;;;3.85;0.90;;;;;;;;;;5034077;28;20207;-65
2022/07/30 11:15:50;;;;;;;4.93;1.00;;;;;;;;;;5034366;28;20227;-65
2022/07/30 11:18:15;;;;;;;45.90;4.43;;;;;;;;;;5033999;28;20235;-65
2022/07/30 11:20:41;;;;;;;3.03;0.90;;;;;;;;;;5033768;28;20239;-64
2022/07/30 11:23:07;;;;;;;7.38;1.23;;;;;;;;;;5034305;28;20228;-64
2022/07/30 11:25:32;;;;;;;6.85;1.20;;;;;;;;;;5034573;28;20220;-64
2022/07/30 11:27:59;;;;;;;15.15;1.70;;;;;;;;;;5033610;28;20234;-64
2022/07/30 11:30:31;;;;;;;2.90;1.00;;;;;;;;;;5033523;28;20207;-64
2022/07/30 11:33:02;;;;;;;4.22;1.02;;;;;;;;;;5034040;28;20219;-65
2022/07/30 11:35:28;;;;;;;11.57;1.52;;;;;;;;;;5033294;28;20222;-64
2022/07/30 11:38:01;;;;;;;11.70;1.67;;;;;;;;;;5041429;28;20211;-64
2022/07/30 11:40:34;;;;;;;12.80;1.98;;;;;;;;;;5053731;28;20211;-64
2022/07/30 11:43:18;;;;;;;11.60;1.45;;;;;;;;;;5051965;28;20265;-64
2022/07/30 11:45:45;;;;;;;3.80;0.82;;;;;;;;;;5053725;28;20233;-65
2022/07/30 11:48:11;;;;;;;2.85;0.90;;;;;;;;;;5053482;28;20223;-62
2022/07/30 11:50:37;;;;;;;5.38;1.00;;;;;;;;;;5051742;28;20230;-65
2022/07/30 11:53:03;;;;;;;6.40;1.52;;;;;;;;;;5053229;28;20666;-64
2022/07/30 11:55:29;;;;;;;3.28;0.80;;;;;;;;;;5053078;28;20278;-64
2022/07/30 11:57:55;;;;;;;3.55;1.10;;;;;;;;;;5053986;28;20245;-64
2022/07/30 12:00:20;;;;;;;5.80;1.48;;;;;;;;;;5052974;28;20239;-64
2022/07/30 12:02:46;;;;;;;4.22;1.10;;;;;;;;;;5052586;28;20215;-64
2022/07/30 12:05:11;;;;;;;24.20;1.88;;;;;;;;;;5044656;28;20204;-64
2022/07/30 12:07:37;;;;;;;4.75;1.23;;;;;;;;;;5035748;28;20223;-64
2022/07/30 12:10:14;;;;;;;48.88;4.47;;;;;;;;;;5052336;28;20211;-64
2022/07/30 12:12:40;;;;;;;71.70;5.60;;;;;;;;;;5053592;28;20211;-64
2022/07/30 12:15:05;;;;;;;62.55;4.35;;;;;;;;;;5046554;28;20211;-65
2022/07/30 12:17:40;;;;;;;7.22;2.17;;;;;;;;;;5052763;28;20207;-65
2022/07/30 12:20:12;;;;;;;22.58;1.90;;;;;;;;;;5034427;28;20219;-65
2022/07/30 12:22:38;;;;;;;4.90;1.33;;;;;;;;;;5035171;28;20211;-65
2022/07/30 12:25:09;;;;;;;5.65;1.25;;;;;;;;;;5034155;28;20226;-65
2022/07/30 12:27:34;;;;;;;31.60;2.92;;;;;;;;;;5053483;28;20250;-64
2022/07/30 12:30:00;;;;;;;7.18;1.20;;;;;;;;;;5035292;28;20594;-65
2022/07/30 12:32:25;;;;;;;21.00;2.60;;;;;;;;;;5038476;28;20661;-65
2022/07/30 12:34:53;;;;;;;10.88;1.83;;;;;;;;;;5029084;28;20215;-64
2022/07/30 12:37:18;;;;;;;7.40;1.40;;;;;;;;;;5036707;28;20206;-65
2022/07/30 12:39:43;;;;;;;4.80;1.20;;;;;;;;;;5038235;28;20230;-65
2022/07/30 12:42:16;;;;;;;14.70;1.88;;;;;;;;;;5033602;28;20638;-65
2022/07/30 12:44:43;;;;;;;6.43;1.25;;;;;;;;;;5044920;28;20221;-65
2022/07/30 12:47:18;;;;;;;4.40;1.35;;;;;;;;;;5026586;28;20226;-64
2022/07/30 12:49:44;;;;;;;4.10;1.20;;;;;;;;;;5030768;28;20322;-64
2022/07/30 12:52:09;;;;;;;5.65;1.35;;;;;;;;;;5036637;28;20333;-64
2022/07/30 12:54:35;;;;;;;2.97;1.10;;;;;;;;;;5008670;28;20310;-66
2022/07/30 12:57:01;;;;;;;6.60;1.35;;;;;;;;;;5019790;28;20733;-62
2022/07/30 12:59:27;;;;;;;4.15;1.17;;;;;;;;;;5017850;28;20224;-61
2022/07/30 13:01:52;;;;;;;4.68;1.20;;;;;;;;;;5018804;28;20808;-64
2022/07/30 13:04:17;;;;;;;2.83;1.02;;;;;;;;;;5025177;28;20231;-62
2022/07/30 13:06:43;;;;;;;6.53;1.63;;;;;;;;;;5012902;28;20222;-62
2022/07/30 13:09:19;;;;;;;5.88;1.20;;;;;;;;;;5045402;28;20223;-62
2022/07/30 13:11:44;;;;;;;3.17;1.25;;;;;;;;;;5046085;28;20226;-62
2022/07/30 13:14:11;;;;;;;5.90;1.38;;;;;;;;;;5027154;28;20211;-62
2022/07/30 13:16:36;;;;;;;6.18;1.27;;;;;;;;;;5027094;28;20220;-62
2022/07/30 13:19:02;;;;;;;3.88;1.20;;;;;;;;;;5021123;28;20215;-63
2022/07/30 13:21:27;;;;;;;4.13;1.50;;;;;;;;;;5018044;28;20737;-63
2022/07/30 13:23:53;;;;;;;5.22;1.33;;;;;;;;;;5018683;28;20226;-63
2022/07/30 13:26:18;;;;;;;37.50;3.33;;;;;;;;;;5023254;28;20546;-63
2022/07/30 13:28:45;;;;;;;29.60;2.83;;;;;;;;;;5025775;28;20318;-64
2022/07/30 13:31:10;;;;;;;8.68;1.77;;;;;;;;;;5025756;28;20212;-63
2022/07/30 13:33:36;;;;;;;4.13;1.38;;;;;;;;;;5044248;28;20227;-62
2022/07/30 13:36:01;;;;;;;6.78;1.50;;;;;;;;;;5044282;28;20203;-63
2022/07/30 13:38:27;;;;;;;4.15;1.35;;;;;;;;;;5028516;28;20212;-63
2022/07/30 13:40:52;;;;;;;5.05;1.70;;;;;;;;;;5022591;28;20215;-62
2022/07/30 13:43:18;;;;;;;4.93;1.40;;;;;;;;;;4999471;28;20336;-62
2022/07/30 13:45:43;;;;;;;7.53;1.73;;;;;;;;;;5017397;28;20219;-63
2022/07/30 13:48:09;;;;;;;3.30;1.40;;;;;;;;;;5018562;28;20569;-62
2022/07/30 13:50:34;;;;;;;5.93;1.35;;;;;;;;;;5025409;28;20208;-63
2022/07/30 13:52:59;;;;;;;6.13;1.60;;;;;;;;;;5007364;28;20219;-62
2022/07/30 13:55:25;;;;;;;8.50;1.60;;;;;;;;;;5036243;28;20243;-62
2022/07/30 13:57:50;;;;;;;4.82;1.40;;;;;;;;;;5007048;28;20683;-62
2022/07/30 14:00:15;;;;;;;5.78;1.50;;;;;;;;;;5025029;28;20279;-62
2022/07/30 14:02:41;;;;;;;5.20;1.40;;;;;;;;;;5024222;28;20220;-62
2022/07/30 14:05:06;;;;;;;4.15;1.90;;;;;;;;;;5016686;28;20254;-61
2022/07/30 14:07:33;;;;;;;4.45;1.83;;;;;;;;;;5017676;28;20228;-62
2022/07/30 14:09:58;;;;;;;5.60;1.60;;;;;;;;;;5036001;28;20222;-62
2022/07/30 14:12:24;;;;;;;6.93;1.80;;;;;;;;;;5043604;28;20211;-63
2022/07/30 14:14:49;;;;;;;5.18;1.88;;;;;;;;;;5039921;28;20235;-62
2022/07/30 14:17:14;;;;;;;5.90;1.67;;;;;;;;;;5024248;28;20303;-62
2022/07/30 14:19:40;;;;;;;6.18;1.50;;;;;;;;;;5025021;28;20737;-62
2022/07/30 14:22:05;;;;;;;5.85;1.80;;;;;;;;;;5024948;28;20691;-63
2022/07/30 14:24:32;;;;;;;74.32;5.15;;;;;;;;;;5024307;28;20220;-64
2022/07/30 14:26:57;;;;;;;10.98;1.88;;;;;;;;;;5038638;28;20833;-63
2022/07/30 14:29:22;;;;;;;4.95;1.77;;;;;;;;;;5017112;28;20223;-63